North Billerica, Massachusetts
Current Conditions -  °F | °C
As of 12:56 PM on Tuesday 21 Oct 2014 (Local Time) from KBED Reporting Station
Broken Clouds Broken Clouds  
Wind Chill: 62°   Ceiling: 10000
Heat Index: 62°   Visibility: 10mi
Dew Point: 53°   Wind: 3mph
Humidity: 72%   Direction: NA
Pressure: 29.92"   Gusts: NA
Location:  42.58°N, 71.28°W
Report Text: KBED 211656Z VRB03KT 10SM BKN100 17/12 A2992 RMK AO2 SLP145 T01670117
Loading
Personal Weather Stations






























Interactive Weather Map
Tropical Storm Tracking
New forecast layout! Learn more

10-Day Weather Forecast

Advertisements
Track Severe Weather on mobile